sensor_id;sensor_type;location;lat;lon;timestamp;pressure;altitude;pressure_sealevel;temperature;humidity
79362;BME280;68830;47.566;19.012;2023-05-18T00:02:54;100048.09;;;12.42;84.50
79362;BME280;68830;47.566;19.012;2023-05-18T00:05:58;100051.22;;;12.37;84.26
79362;BME280;68830;47.566;19.012;2023-05-18T00:09:06;100057.50;;;12.36;84.62
79362;BME280;68830;47.566;19.012;2023-05-18T00:12:08;100056.50;;;12.29;85.02
79362;BME280;68830;47.566;19.012;2023-05-18T00:15:10;100059.66;;;12.33;85.80
79362;BME280;68830;47.566;19.012;2023-05-18T00:18:12;100055.34;;;12.32;85.08
79362;BME280;68830;47.566;19.012;2023-05-18T00:21:14;100063.81;;;12.35;85.66
79362;BME280;68830;47.566;19.012;2023-05-18T00:24:19;100057.50;;;12.36;84.93
79362;BME280;68830;47.566;19.012;2023-05-18T00:27:20;100058.50;;;12.35;85.49
79362;BME280;68830;47.566;19.012;2023-05-18T00:30:22;100063.50;;;12.38;86.03
79362;BME280;68830;47.566;19.012;2023-05-18T00:33:26;100054.03;;;12.36;85.79
79362;BME280;68830;47.566;19.012;2023-05-18T00:36:28;100048.56;;;12.37;86.23
79362;BME280;68830;47.566;19.012;2023-05-18T00:39:32;100058.91;;;12.48;85.93
79362;BME280;68830;47.566;19.012;2023-05-18T00:42:34;100057.97;;;12.57;85.92
79362;BME280;68830;47.566;19.012;2023-05-18T00:45:37;100052.09;;;12.46;85.76
79362;BME280;68830;47.566;19.012;2023-05-18T00:48:39;100046.13;;;12.52;85.25
79362;BME280;68830;47.566;19.012;2023-05-18T00:51:42;100062.75;;;12.54;85.21
79362;BME280;68830;47.566;19.012;2023-05-18T00:54:46;100052.25;;;12.44;84.98
79362;BME280;68830;47.566;19.012;2023-05-18T00:57:48;100046.63;;;12.47;84.61
79362;BME280;68830;47.566;19.012;2023-05-18T01:00:51;100070.56;;;12.55;84.94
79362;BME280;68830;47.566;19.012;2023-05-18T01:03:54;100070.72;;;12.54;85.41
79362;BME280;68830;47.566;19.012;2023-05-18T01:07:03;100069.69;;;12.47;85.30
79362;BME280;68830;47.566;19.012;2023-05-18T01:10:10;100075.53;;;12.50;85.41
79362;BME280;68830;47.566;19.012;2023-05-18T01:13:19;100082.03;;;12.56;85.13
79362;BME280;68830;47.566;19.012;2023-05-18T01:16:26;100077.19;;;12.51;85.33
79362;BME280;68830;47.566;19.012;2023-05-18T01:19:48;100072.13;;;12.40;85.06
79362;BME280;68830;47.566;19.012;2023-05-18T01:23:16;100071.31;;;12.40;84.86
79362;BME280;68830;47.566;19.012;2023-05-18T01:26:28;100068.28;;;12.35;85.92
79362;BME280;68830;47.566;19.012;2023-05-18T01:29:39;100079.16;;;12.49;85.20
79362;BME280;68830;47.566;19.012;2023-05-18T01:32:44;100082.66;;;12.50;85.75
79362;BME280;68830;47.566;19.012;2023-05-18T01:35:47;100080.50;;;12.53;85.62
79362;BME280;68830;47.566;19.012;2023-05-18T01:38:50;100091.69;;;12.57;85.17
79362;BME280;68830;47.566;19.012;2023-05-18T01:41:58;100086.31;;;12.49;85.94
79362;BME280;68830;47.566;19.012;2023-05-18T01:45:05;100100.06;;;12.44;85.26
79362;BME280;68830;47.566;19.012;2023-05-18T01:48:09;100098.16;;;12.29;85.78
79362;BME280;68830;47.566;19.012;2023-05-18T01:51:16;100103.38;;;12.20;85.96
79362;BME280;68830;47.566;19.012;2023-05-18T01:54:21;100099.91;;;12.20;85.87
79362;BME280;68830;47.566;19.012;2023-05-18T01:57:26;100094.09;;;12.24;87.24
79362;BME280;68830;47.566;19.012;2023-05-18T02:00:30;100103.22;;;12.22;86.57
79362;BME280;68830;47.566;19.012;2023-05-18T02:03:32;100106.88;;;12.21;85.44
79362;BME280;68830;47.566;19.012;2023-05-18T02:06:35;100105.88;;;12.22;86.18
79362;BME280;68830;47.566;19.012;2023-05-18T02:09:37;100110.19;;;12.23;86.56
79362;BME280;68830;47.566;19.012;2023-05-18T02:12:40;100093.06;;;12.17;86.08
79362;BME280;68830;47.566;19.012;2023-05-18T02:15:43;100113.91;;;12.30;86.31
79362;BME280;68830;47.566;19.012;2023-05-18T02:18:45;100114.78;;;12.39;86.67
79362;BME280;68830;47.566;19.012;2023-05-18T02:21:47;100117.19;;;12.50;85.57
79362;BME280;68830;47.566;19.012;2023-05-18T02:24:50;100125.38;;;12.56;85.48
79362;BME280;68830;47.566;19.012;2023-05-18T02:27:53;100127.22;;;12.56;86.91
79362;BME280;68830;47.566;19.012;2023-05-18T02:31:04;100128.16;;;12.55;86.47
79362;BME280;68830;47.566;19.012;2023-05-18T02:34:06;100124.69;;;12.54;85.76
79362;BME280;68830;47.566;19.012;2023-05-18T02:37:09;100129.31;;;12.52;85.85
79362;BME280;68830;47.566;19.012;2023-05-18T02:40:14;100126.34;;;12.55;86.41
79362;BME280;68830;47.566;19.012;2023-05-18T02:43:20;100133.63;;;12.53;86.51
79362;BME280;68830;47.566;19.012;2023-05-18T02:46:23;100131.66;;;12.55;86.74
79362;BME280;68830;47.566;19.012;2023-05-18T02:49:25;100129.69;;;12.57;86.58
79362;BME280;68830;47.566;19.012;2023-05-18T02:52:27;100125.72;;;12.62;87.13
79362;BME280;68830;47.566;19.012;2023-05-18T02:55:31;100125.56;;;12.63;86.47
79362;BME280;68830;47.566;19.012;2023-05-18T02:58:35;100137.53;;;12.67;85.42
79362;BME280;68830;47.566;19.012;2023-05-18T03:01:37;100126.09;;;12.67;86.21
79362;BME280;68830;47.566;19.012;2023-05-18T03:04:40;100124.41;;;12.66;85.57
79362;BME280;68830;47.566;19.012;2023-05-18T03:07:42;100127.41;;;12.63;85.73
79362;BME280;68830;47.566;19.012;2023-05-18T03:10:52;100130.22;;;12.61;85.78
79362;BME280;68830;47.566;19.012;2023-05-18T03:13:55;100133.34;;;12.56;87.04
79362;BME280;68830;47.566;19.012;2023-05-18T03:16:58;100124.84;;;12.53;85.77
79362;BME280;68830;47.566;19.012;2023-05-18T03:20:01;100129.53;;;12.59;86.54
79362;BME280;68830;47.566;19.012;2023-05-18T03:23:04;100132.88;;;12.61;86.00
79362;BME280;68830;47.566;19.012;2023-05-18T03:26:07;100129.97;;;12.46;85.35
79362;BME280;68830;47.566;19.012;2023-05-18T03:29:13;100117.09;;;12.34;86.05
79362;BME280;68830;47.566;19.012;2023-05-18T03:32:16;100139.75;;;12.46;86.76
79362;BME280;68830;47.566;19.012;2023-05-18T03:35:18;100137.09;;;12.46;85.54
79362;BME280;68830;47.566;19.012;2023-05-18T03:38:19;100120.41;;;12.36;86.34
79362;BME280;68830;47.566;19.012;2023-05-18T03:41:22;100144.06;;;12.47;86.26
79362;BME280;68830;47.566;19.012;2023-05-18T03:44:25;100146.81;;;12.37;85.87
79362;BME280;68830;47.566;19.012;2023-05-18T03:47:28;100151.44;;;12.35;86.11
79362;BME280;68830;47.566;19.012;2023-05-18T03:50:30;100158.44;;;12.36;85.80
79362;BME280;68830;47.566;19.012;2023-05-18T03:53:32;100145.63;;;12.32;87.07
79362;BME280;68830;47.566;19.012;2023-05-18T03:56:36;100160.72;;;12.31;86.81
79362;BME280;68830;47.566;19.012;2023-05-18T03:59:40;100163.06;;;12.34;87.02
79362;BME280;68830;47.566;19.012;2023-05-18T04:02:42;100162.38;;;12.32;86.34
79362;BME280;68830;47.566;19.012;2023-05-18T04:05:45;100168.06;;;12.37;86.73
79362;BME280;68830;47.566;19.012;2023-05-18T04:08:47;100140.03;;;12.17;85.77
79362;BME280;68830;47.566;19.012;2023-05-18T04:11:50;100165.41;;;12.37;87.59
79362;BME280;68830;47.566;19.012;2023-05-18T04:14:53;100170.03;;;12.35;85.98
79362;BME280;68830;47.566;19.012;2023-05-18T04:17:56;100165.41;;;12.37;86.39
79362;BME280;68830;47.566;19.012;2023-05-18T04:20:58;100173.22;;;12.39;86.53
79362;BME280;68830;47.566;19.012;2023-05-18T04:24:01;100174.47;;;12.52;85.73
79362;BME280;68830;47.566;19.012;2023-05-18T04:27:06;100181.53;;;12.62;87.01
79362;BME280;68830;47.566;19.012;2023-05-18T04:30:11;100168.34;;;12.52;85.99
79362;BME280;68830;47.566;19.012;2023-05-18T04:33:15;100177.81;;;12.54;85.75
79362;BME280;68830;47.566;19.012;2023-05-18T04:36:17;100172.63;;;12.45;85.27
79362;BME280;68830;47.566;19.012;2023-05-18T04:39:21;100176.31;;;12.52;84.42
79362;BME280;68830;47.566;19.012;2023-05-18T04:42:28;100183.44;;;12.51;84.96
79362;BME280;68830;47.566;19.012;2023-05-18T04:45:31;100191.63;;;12.58;86.32
79362;BME280;68830;47.566;19.012;2023-05-18T04:48:35;100183.44;;;12.51;85.31
79362;BME280;68830;47.566;19.012;2023-05-18T04:51:36;100190.06;;;12.47;86.31
79362;BME280;68830;47.566;19.012;2023-05-18T04:54:38;100196.50;;;12.45;86.30
79362;BME280;68830;47.566;19.012;2023-05-18T04:57:41;100192.56;;;12.49;85.83
79362;BME280;68830;47.566;19.012;2023-05-18T05:00:47;100189.44;;;12.53;85.67
79362;BME280;68830;47.566;19.012;2023-05-18T05:03:49;100195.88;;;12.51;85.89
79362;BME280;68830;47.566;19.012;2023-05-18T05:06:51;100195.53;;;12.46;85.64
79362;BME280;68830;47.566;19.012;2023-05-18T05:09:53;100198.19;;;12.46;86.33
79362;BME280;68830;47.566;19.012;2023-05-18T05:12:55;100200.53;;;12.49;85.79
79362;BME280;68830;47.566;19.012;2023-05-18T05:15:59;100191.56;;;12.50;86.58
79362;BME280;68830;47.566;19.012;2023-05-18T05:19:01;100205.09;;;12.56;86.40
79362;BME280;68830;47.566;19.012;2023-05-18T05:22:04;100213.25;;;12.63;85.57
79362;BME280;68830;47.566;19.012;2023-05-18T05:25:06;100202.78;;;12.62;86.43
79362;BME280;68830;47.566;19.012;2023-05-18T05:28:09;100210.44;;;12.65;84.66
79362;BME280;68830;47.566;19.012;2023-05-18T05:31:13;100207.94;;;12.63;85.03
79362;BME280;68830;47.566;19.012;2023-05-18T05:34:15;100205.94;;;12.65;85.29
79362;BME280;68830;47.566;19.012;2023-05-18T05:37:17;100215.75;;;12.65;85.39
79362;BME280;68830;47.566;19.012;2023-05-18T05:40:20;100220.22;;;12.64;85.07
79362;BME280;68830;47.566;19.012;2023-05-18T05:43:22;100220.06;;;12.66;86.30
79362;BME280;68830;47.566;19.012;2023-05-18T05:46:25;100221.66;;;12.76;85.18
79362;BME280;68830;47.566;19.012;2023-05-18T05:49:27;100232.44;;;12.75;85.45
79362;BME280;68830;47.566;19.012;2023-05-18T05:52:32;100225.13;;;12.77;84.98
79362;BME280;68830;47.566;19.012;2023-05-18T05:55:35;100232.94;;;12.78;85.53
79362;BME280;68830;47.566;19.012;2023-05-18T05:58:42;100228.47;;;12.79;85.50
79362;BME280;68830;47.566;19.012;2023-05-18T06:01:46;100203.69;;;12.52;85.58
79362;BME280;68830;47.566;19.012;2023-05-18T06:04:48;100170.22;;;11.07;92.75
79362;BME280;68830;47.566;19.012;2023-05-18T06:07:50;100171.69;;;10.92;94.72
79362;BME280;68830;47.566;19.012;2023-05-18T06:10:53;100181.16;;;10.95;93.76
79362;BME280;68830;47.566;19.012;2023-05-18T06:13:55;100189.59;;;11.08;94.58
79362;BME280;68830;47.566;19.012;2023-05-18T06:16:59;100180.66;;;11.09;95.69
79362;BME280;68830;47.566;19.012;2023-05-18T06:20:01;100188.47;;;11.11;94.47
79362;BME280;68830;47.566;19.012;2023-05-18T06:23:05;100202.72;;;11.10;94.36
79362;BME280;68830;47.566;19.012;2023-05-18T06:26:06;100200.22;;;11.08;93.70
79362;BME280;68830;47.566;19.012;2023-05-18T06:29:09;100200.44;;;11.15;94.64
79362;BME280;68830;47.566;19.012;2023-05-18T06:32:13;100271.06;;;11.43;95.25
79362;BME280;68830;47.566;19.012;2023-05-18T06:35:15;100276.63;;;11.87;92.74
79362;BME280;68830;47.566;19.012;2023-05-18T06:38:17;100269.13;;;12.18;90.87
79362;BME280;68830;47.566;19.012;2023-05-18T06:41:19;100263.22;;;12.42;89.77
79362;BME280;68830;47.566;19.012;2023-05-18T06:44:23;100271.91;;;12.70;87.46
79362;BME280;68830;47.566;19.012;2023-05-18T06:47:26;100264.09;;;12.68;88.28
79362;BME280;68830;47.566;19.012;2023-05-18T06:50:29;100277.34;;;12.86;87.35
79362;BME280;68830;47.566;19.012;2023-05-18T06:53:31;100290.03;;;12.92;86.42
79362;BME280;68830;47.566;19.012;2023-05-18T06:56:33;100288.13;;;12.84;86.62
79362;BME280;68830;47.566;19.012;2023-05-18T06:59:35;100291.34;;;12.88;86.28
79362;BME280;68830;47.566;19.012;2023-05-18T07:02:38;100266.00;;;12.40;88.49
79362;BME280;68830;47.566;19.012;2023-05-18T07:05:41;100286.16;;;11.70;91.58
79362;BME280;68830;47.566;19.012;2023-05-18T07:08:43;100283.84;;;11.57;93.79
79362;BME280;68830;47.566;19.012;2023-05-18T07:11:46;100281.88;;;11.59;94.01
79362;BME280;68830;47.566;19.012;2023-05-18T07:14:48;100286.66;;;11.56;94.37
79362;BME280;68830;47.566;19.012;2023-05-18T07:17:54;100273.44;;;11.46;94.15
79362;BME280;68830;47.566;19.012;2023-05-18T07:20:56;100291.28;;;11.54;94.01
79362;BME280;68830;47.566;19.012;2023-05-18T07:23:58;100291.22;;;11.63;94.76
79362;BME280;68830;47.566;19.012;2023-05-18T07:27:00;100290.78;;;11.68;94.05
79362;BME280;68830;47.566;19.012;2023-05-18T07:30:02;100301.81;;;11.63;94.46
79362;BME280;68830;47.566;19.012;2023-05-18T07:33:07;100301.81;;;11.63;95.04
79362;BME280;68830;47.566;19.012;2023-05-18T07:36:09;100295.25;;;11.67;95.42
79362;BME280;68830;47.566;19.012;2023-05-18T07:39:11;100306.28;;;11.63;94.82
79362;BME280;68830;47.566;19.012;2023-05-18T07:42:20;100307.84;;;11.65;95.01
79362;BME280;68830;47.566;19.012;2023-05-18T07:45:22;100310.34;;;11.67;94.97
79362;BME280;68830;47.566;19.012;2023-05-18T07:48:26;100309.66;;;11.65;94.63
79362;BME280;68830;47.566;19.012;2023-05-18T07:51:28;100309.41;;;11.58;94.03
79362;BME280;68830;47.566;19.012;2023-05-18T07:54:30;100318.38;;;11.75;93.84
79362;BME280;68830;47.566;19.012;2023-05-18T07:57:33;100318.97;;;11.79;94.12
79362;BME280;68830;47.566;19.012;2023-05-18T08:00:36;100319.75;;;11.89;95.22
79362;BME280;68830;47.566;19.012;2023-05-18T08:03:39;100319.44;;;11.92;94.43
79362;BME280;68830;47.566;19.012;2023-05-18T08:06:42;100324.19;;;11.98;93.91
79362;BME280;68830;47.566;19.012;2023-05-18T08:09:44;100322.38;;;11.99;94.70
79362;BME280;68830;47.566;19.012;2023-05-18T08:12:46;100313.47;;;11.90;94.65
79362;BME280;68830;47.566;19.012;2023-05-18T08:15:48;100324.50;;;11.95;94.39
79362;BME280;68830;47.566;19.012;2023-05-18T08:19:11;100326.00;;;11.98;94.26
79362;BME280;68830;47.566;19.012;2023-05-18T08:22:13;100337.94;;;11.84;94.04
79362;BME280;68830;47.566;19.012;2023-05-18T08:25:16;100327.72;;;11.89;93.69
79362;BME280;68830;47.566;19.012;2023-05-18T08:28:20;100339.44;;;11.96;92.39
79362;BME280;68830;47.566;19.012;2023-05-18T08:31:22;100333.38;;;12.04;93.25
79362;BME280;68830;47.566;19.012;2023-05-18T08:34:25;100329.28;;;12.09;93.71
79362;BME280;68830;47.566;19.012;2023-05-18T08:37:28;100337.53;;;12.06;92.55
79362;BME280;68830;47.566;19.012;2023-05-18T08:40:35;100337.19;;;12.19;92.74
79362;BME280;68830;47.566;19.012;2023-05-18T08:43:41;100330.75;;;12.39;94.20
79362;BME280;68830;47.566;19.012;2023-05-18T08:46:49;100333.50;;;12.30;93.78
79362;BME280;68830;47.566;19.012;2023-05-18T08:49:54;100336.97;;;12.30;91.57
79362;BME280;68830;47.566;19.012;2023-05-18T08:53:00;100311.78;;;12.34;94.38
79362;BME280;68830;47.566;19.012;2023-05-18T08:56:03;100329.16;;;12.46;94.85
79362;BME280;68830;47.566;19.012;2023-05-18T08:59:06;100341.25;;;12.41;93.05
79362;BME280;68830;47.566;19.012;2023-05-18T09:02:09;100336.69;;;12.51;93.34
79362;BME280;68830;47.566;19.012;2023-05-18T09:05:14;100337.00;;;12.48;92.32
79362;BME280;68830;47.566;19.012;2023-05-18T09:08:17;100329.22;;;12.54;92.14
79362;BME280;68830;47.566;19.012;2023-05-18T09:11:20;100325.28;;;12.76;92.61
79362;BME280;68830;47.566;19.012;2023-05-18T09:14:23;100327.00;;;12.85;93.63
79362;BME280;68830;47.566;19.012;2023-05-18T09:17:26;100325.25;;;12.94;90.71
79362;BME280;68830;47.566;19.012;2023-05-18T09:20:31;100323.00;;;12.81;88.54
79362;BME280;68830;47.566;19.012;2023-05-18T09:23:33;100322.28;;;12.97;92.06
79362;BME280;68830;47.566;19.012;2023-05-18T09:26:35;100327.28;;;13.00;89.44
79362;BME280;68830;47.566;19.012;2023-05-18T09:29:50;100249.31;;;12.48;90.42
79362;BME280;68830;47.566;19.012;2023-05-18T09:32:53;100330.94;;;12.99;92.15
79362;BME280;68830;47.566;19.012;2023-05-18T09:35:56;100332.56;;;12.92;92.14
79362;BME280;68830;47.566;19.012;2023-05-18T09:39:06;100332.41;;;12.94;87.89
79362;BME280;68830;47.566;19.012;2023-05-18T09:42:08;100329.34;;;13.24;92.55
79362;BME280;68830;47.566;19.012;2023-05-18T09:45:17;100324.00;;;13.24;89.60
79362;BME280;68830;47.566;19.012;2023-05-18T09:48:19;100331.31;;;13.22;89.50
79362;BME280;68830;47.566;19.012;2023-05-18T09:51:28;100343.66;;;13.31;89.06
79362;BME280;68830;47.566;19.012;2023-05-18T09:54:30;100326.16;;;13.21;89.60
79362;BME280;68830;47.566;19.012;2023-05-18T09:57:37;100340.03;;;13.14;91.71
79362;BME280;68830;47.566;19.012;2023-05-18T10:00:43;100335.84;;;13.12;89.62
79362;BME280;68830;47.566;19.012;2023-05-18T10:03:45;100338.34;;;13.31;90.18
79362;BME280;68830;47.566;19.012;2023-05-18T10:06:52;100338.31;;;13.49;89.46
79362;BME280;68830;47.566;19.012;2023-05-18T10:09:59;100326.94;;;13.39;88.18
79362;BME280;68830;47.566;19.012;2023-05-18T10:13:02;100330.22;;;13.33;89.82
79362;BME280;68830;47.566;19.012;2023-05-18T10:16:06;100319.88;;;13.56;90.65
79362;BME280;68830;47.566;19.012;2023-05-18T10:19:09;100333.75;;;13.41;88.45
79362;BME280;68830;47.566;19.012;2023-05-18T10:22:15;100329.84;;;13.28;87.67
79362;BME280;68830;47.566;19.012;2023-05-18T10:25:21;100338.34;;;13.31;89.73
79362;BME280;68830;47.566;19.012;2023-05-18T10:28:26;100339.03;;;13.33;88.06
79362;BME280;68830;47.566;19.012;2023-05-18T10:31:31;100330.50;;;13.56;93.06
79362;BME280;68830;47.566;19.012;2023-05-18T10:34:34;100333.91;;;13.74;91.07
79362;BME280;68830;47.566;19.012;2023-05-18T10:37:42;100308.66;;;13.44;88.23
79362;BME280;68830;47.566;19.012;2023-05-18T10:40:46;100331.06;;;13.67;87.27
79362;BME280;68830;47.566;19.012;2023-05-18T10:43:49;100332.88;;;14.01;92.25
79362;BME280;68830;47.566;19.012;2023-05-18T10:46:52;100337.41;;;14.17;89.67
79362;BME280;68830;47.566;19.012;2023-05-18T10:49:57;100334.41;;;14.20;90.25
79362;BME280;68830;47.566;19.012;2023-05-18T10:53:01;100326.91;;;14.15;86.25
79362;BME280;68830;47.566;19.012;2023-05-18T10:56:04;100328.09;;;14.13;87.22
79362;BME280;68830;47.566;19.012;2023-05-18T10:59:08;100319.72;;;13.99;87.02
79362;BME280;68830;47.566;19.012;2023-05-18T11:02:13;100321.47;;;14.25;90.18
79362;BME280;68830;47.566;19.012;2023-05-18T11:05:22;100324.69;;;13.94;85.48
79362;BME280;68830;47.566;19.012;2023-05-18T11:08:26;100327.72;;;14.07;87.47
79362;BME280;68830;47.566;19.012;2023-05-18T11:11:28;100345.84;;;14.04;85.72
79362;BME280;68830;47.566;19.012;2023-05-18T11:14:34;100338.84;;;13.95;86.05
79362;BME280;68830;47.566;19.012;2023-05-18T11:17:36;100338.81;;;13.87;86.04
79362;BME280;68830;47.566;19.012;2023-05-18T11:20:39;100341.47;;;13.87;83.81
79362;BME280;68830;47.566;19.012;2023-05-18T11:23:42;100346.78;;;13.79;87.63
79362;BME280;68830;47.566;19.012;2023-05-18T11:26:45;100338.91;;;13.69;87.55
79362;BME280;68830;47.566;19.012;2023-05-18T11:29:47;100338.91;;;13.77;85.00
79362;BME280;68830;47.566;19.012;2023-05-18T11:33:07;100333.09;;;13.73;86.11
79362;BME280;68830;47.566;19.012;2023-05-18T11:36:11;100345.97;;;13.86;88.10
79362;BME280;68830;47.566;19.012;2023-05-18T11:39:22;100345.44;;;13.83;90.38
79362;BME280;68830;47.566;19.012;2023-05-18T11:42:30;100349.94;;;13.82;88.98
79362;BME280;68830;47.566;19.012;2023-05-18T11:45:34;100353.28;;;13.92;88.39
79362;BME280;68830;47.566;19.012;2023-05-18T11:48:42;100347.75;;;13.77;88.55
79362;BME280;68830;47.566;19.012;2023-05-18T11:52:01;100361.59;;;13.89;89.22
79362;BME280;68830;47.566;19.012;2023-05-18T11:55:06;100351.41;;;13.76;87.81
79362;BME280;68830;47.566;19.012;2023-05-18T11:58:09;100360.53;;;13.74;89.37
79362;BME280;68830;47.566;19.012;2023-05-18T12:01:13;100354.81;;;13.95;89.11
79362;BME280;68830;47.566;19.012;2023-05-18T12:04:15;100353.47;;;13.91;86.88
79362;BME280;68830;47.566;19.012;2023-05-18T12:07:17;100357.00;;;13.99;87.32
79362;BME280;68830;47.566;19.012;2023-05-18T12:10:22;100324.75;;;13.68;89.49
79362;BME280;68830;47.566;19.012;2023-05-18T12:13:26;100353.78;;;13.88;90.45
79362;BME280;68830;47.566;19.012;2023-05-18T12:16:29;100326.59;;;13.68;90.10
79362;BME280;68830;47.566;19.012;2023-05-18T12:19:36;100362.28;;;13.91;91.27
79362;BME280;68830;47.566;19.012;2023-05-18T12:22:39;100346.34;;;13.99;89.12
79362;BME280;68830;47.566;19.012;2023-05-18T12:25:42;100353.66;;;13.97;90.41
79362;BME280;68830;47.566;19.012;2023-05-18T12:28:45;100361.66;;;13.97;90.02
79362;BME280;68830;47.566;19.012;2023-05-18T12:31:47;100363.81;;;14.02;89.22
79362;BME280;68830;47.566;19.012;2023-05-18T12:34:49;100368.81;;;14.05;86.28
79362;BME280;68830;47.566;19.012;2023-05-18T12:37:52;100356.88;;;14.09;85.94
79362;BME280;68830;47.566;19.012;2023-05-18T12:40:59;100348.25;;;14.23;89.54
79362;BME280;68830;47.566;19.012;2023-05-18T12:44:02;100350.50;;;14.02;89.66
79362;BME280;68830;47.566;19.012;2023-05-18T12:47:07;100355.16;;;14.00;87.97
79362;BME280;68830;47.566;19.012;2023-05-18T12:50:10;100345.69;;;14.05;87.10
79362;BME280;68830;47.566;19.012;2023-05-18T12:53:12;100355.06;;;14.10;86.76
79362;BME280;68830;47.566;19.012;2023-05-18T12:56:16;100355.22;;;14.16;87.03
79362;BME280;68830;47.566;19.012;2023-05-18T12:59:19;100357.94;;;14.24;89.75
79362;BME280;68830;47.566;19.012;2023-05-18T13:02:30;100329.50;;;13.91;86.11
79362;BME280;68830;47.566;19.012;2023-05-18T13:05:33;100358.22;;;14.13;87.94
79362;BME280;68830;47.566;19.012;2023-05-18T13:08:36;100360.06;;;14.13;89.71
79362;BME280;68830;47.566;19.012;2023-05-18T13:11:40;100352.72;;;14.15;88.15
79362;BME280;68830;47.566;19.012;2023-05-18T13:14:47;100347.56;;;14.21;88.04
79362;BME280;68830;47.566;19.012;2023-05-18T13:17:58;100346.53;;;14.06;87.77
79362;BME280;68830;47.566;19.012;2023-05-18T13:21:00;100345.91;;;14.12;85.14
79362;BME280;68830;47.566;19.012;2023-05-18T13:24:03;100355.19;;;14.08;88.02
79362;BME280;68830;47.566;19.012;2023-05-18T13:27:06;100315.88;;;13.94;87.95
79362;BME280;68830;47.566;19.012;2023-05-18T13:30:10;100358.38;;;14.12;85.02
79362;BME280;68830;47.566;19.012;2023-05-18T13:33:12;100355.56;;;14.21;89.09
79362;BME280;68830;47.566;19.012;2023-05-18T13:36:15;100358.88;;;14.23;86.71
79362;BME280;68830;47.566;19.012;2023-05-18T13:39:17;100362.34;;;14.07;89.62
79362;BME280;68830;47.566;19.012;2023-05-18T13:42:20;100356.84;;;14.01;88.83
79362;BME280;68830;47.566;19.012;2023-05-18T13:45:22;100365.16;;;14.06;90.11
79362;BME280;68830;47.566;19.012;2023-05-18T13:48:25;100358.72;;;14.17;86.21
79362;BME280;68830;47.566;19.012;2023-05-18T13:51:29;100347.91;;;14.18;85.07
79362;BME280;68830;47.566;19.012;2023-05-18T13:54:31;100362.09;;;14.27;87.96
79362;BME280;68830;47.566;19.012;2023-05-18T13:57:35;100358.75;;;14.33;85.56
79362;BME280;68830;47.566;19.012;2023-05-18T14:00:37;100346.44;;;14.32;88.92
79362;BME280;68830;47.566;19.012;2023-05-18T14:03:39;100355.16;;;14.50;87.09
79362;BME280;68830;47.566;19.012;2023-05-18T14:06:42;100359.16;;;14.46;83.89
79362;BME280;68830;47.566;19.012;2023-05-18T14:09:44;100364.50;;;14.46;87.07
79362;BME280;68830;47.566;19.012;2023-05-18T14:12:48;100342.44;;;14.28;85.66
79362;BME280;68830;47.566;19.012;2023-05-18T14:15:52;100365.22;;;14.22;85.13
79362;BME280;68830;47.566;19.012;2023-05-18T14:18:54;100367.59;;;14.33;85.16
79362;BME280;68830;47.566;19.012;2023-05-18T14:21:57;100379.03;;;14.18;89.56
79362;BME280;68830;47.566;19.012;2023-05-18T14:24:59;100368.88;;;14.13;88.64
79362;BME280;68830;47.566;19.012;2023-05-18T14:28:03;100379.69;;;14.20;84.21
79362;BME280;68830;47.566;19.012;2023-05-18T14:31:05;100384.19;;;14.11;89.09
79362;BME280;68830;47.566;19.012;2023-05-18T14:34:08;100391.00;;;14.14;87.85
79362;BME280;68830;47.566;19.012;2023-05-18T14:37:10;100357.16;;;13.98;84.78
79362;BME280;68830;47.566;19.012;2023-05-18T14:40:12;100381.16;;;14.06;88.63
79362;BME280;68830;47.566;19.012;2023-05-18T14:43:15;100373.09;;;13.90;85.47
79362;BME280;68830;47.566;19.012;2023-05-18T14:46:17;100381.13;;;13.98;84.40
79362;BME280;68830;47.566;19.012;2023-05-18T14:49:19;100382.75;;;13.91;85.79
79362;BME280;68830;47.566;19.012;2023-05-18T14:52:21;100377.13;;;13.94;84.36
79362;BME280;68830;47.566;19.012;2023-05-18T14:55:23;100386.28;;;13.99;86.55
79362;BME280;68830;47.566;19.012;2023-05-18T14:58:27;100387.13;;;14.00;84.60
79362;BME280;68830;47.566;19.012;2023-05-18T15:01:29;100391.44;;;14.01;83.81
79362;BME280;68830;47.566;19.012;2023-05-18T15:04:31;100390.78;;;13.99;85.87
79362;BME280;68830;47.566;19.012;2023-05-18T15:07:34;100387.97;;;14.00;84.44
79362;BME280;68830;47.566;19.012;2023-05-18T15:10:36;100374.91;;;13.89;85.47
79362;BME280;68830;47.566;19.012;2023-05-18T15:13:39;100386.06;;;13.93;85.02
79362;BME280;68830;47.566;19.012;2023-05-18T15:16:41;100392.88;;;13.79;88.06
79362;BME280;68830;47.566;19.012;2023-05-18T15:19:47;100388.66;;;13.76;90.14
79362;BME280;68830;47.566;19.012;2023-05-18T15:22:49;100391.13;;;13.70;88.76
79362;BME280;68830;47.566;19.012;2023-05-18T15:25:52;100390.50;;;13.76;85.43
79362;BME280;68830;47.566;19.012;2023-05-18T15:28:55;100399.16;;;13.78;88.22
79362;BME280;68830;47.566;19.012;2023-05-18T15:31:58;100371.44;;;13.63;84.82
79362;BME280;68830;47.566;19.012;2023-05-18T15:35:00;100399.72;;;13.90;84.30
79362;BME280;68830;47.566;19.012;2023-05-18T15:38:05;100384.03;;;13.79;88.52
79362;BME280;68830;47.566;19.012;2023-05-18T15:41:07;100390.22;;;13.87;83.41
79362;BME280;68830;47.566;19.012;2023-05-18T15:44:10;100372.75;;;13.85;84.68
79362;BME280;68830;47.566;19.012;2023-05-18T15:47:13;100396.22;;;13.89;86.50
79362;BME280;68830;47.566;19.012;2023-05-18T15:50:15;100382.34;;;13.77;89.46